RJFURJDC

Guest
Details From RJFU - NAGASAKI
To RJDC - YAMAGUCHI UBE
Flight Number -
Tags generated
Created
Modified
Stats Distance 91 nm / 169 km
Max Altitude 11,800 ft / 3,597 m
Waypoints 3
Social Downloads 0
Likes 0
Share VATSIM

Download

Looking for another format? Having issues loading an existing format? Contact us
Advertisement - Login to hide

Notes

Basic altitude profile: - Ascent Rate: 2500ft/min - Ascent Speed: 250kts - Cruise Altitude: 35000ft - Cruise Speed: 420kts - Descent Rate: 1500ft/min - Descent Speed: 250kts Options: - Use NATs: yes - Use PACOTS: yes - Use low airways: yes - Use high airways: yes

Route

RJFU OGORI RJDC

ID Type Via Altitude Latitude Longitude Leg Dist Tot Dist Heading (true) Name
O RJFU APT - 0 ft / 0 m 32.92250˚ 129.92346˚ - 0 nm - NAGASAKI
OGORI FIX - 11,800 ft / 3,597 m 33.27777˚ 130.42907˚ 33 nm 33 nm 50° / 50° -
O RJDC APT - 0 ft / 0 m 33.92991˚ 131.27877˚ 57 nm 90 nm 47° / 48° YAMAGUCHI UBE

Altitude Profile

Advertisement - Login to hide

RJFU

Details ICAO RJFU (NGS)
Name NAGASAKI
Region Japan
Timezone Asia/Tokyo (UTC+9.0)
Stats Elevation 15 ft / 5 m (AMSL)
Location 32.922505° 129.923457°
Runways 2
Magnetic Variation 7.237° W

METAR

RJFU 131200Z 05006KT 9999 FEW040 03/M05 Q1027

Decode

TAF

TAF RJFU 131105Z 1312/1418 36012KT 9999 FEW040 BECMG 1316/1318 14003KT BECMG 1400/1403 02008KT BECMG 1412/1415 14005KT

Decode

Departure Runways

ID Width Length Bearing (true) Bearing (mag) Surface Threshold Offset Overrun Length
14 200 ft / 61 m 9,851 ft / 3,003 m 138.12° 145.36° Asphalt 0 ft / 0 m 200 ft / 61 m
18 100 ft / 30 m 4,363 ft / 1,330 m 174.19° 181.43° Asphalt 245 ft / 75 m 0 ft / 0 m
32 200 ft / 61 m 9,851 ft / 3,003 m 318.14° 325.38° Asphalt 0 ft / 0 m 200 ft / 61 m
36 100 ft / 30 m 4,363 ft / 1,330 m 354.19° 1.43° Asphalt 245 ft / 75 m 0 ft / 0 m

RJDC

Details ICAO RJDC (UBJ)
Name YAMAGUCHI UBE
Region Japan
Timezone Asia/Tokyo (UTC+9.0)
Stats Elevation 23 ft / 7 m (AMSL)
Location 33.929913° 131.278765°
Runways 1
Magnetic Variation 7.561° W

METAR

RJDC 131200Z 27008KT 9999 FEW025 BKN060 04/M04 Q1026

Decode

TAF

Not found

Destination Runways

ID Width Length Bearing (true) Bearing (mag) Surface Threshold Offset Overrun Length
07 150 ft / 46 m 8,196 ft / 2,498 m 62.16° 69.72° Asphalt 0 ft / 0 m 210 ft / 64 m
25 150 ft / 46 m 8,196 ft / 2,498 m 242.17° 249.73° Asphalt 0 ft / 0 m 210 ft / 64 m

Approach Navaids

Runway Type Ident Frequency Range Bearing (true) Bearing (mag) Slope Elevation
07 Localiser IUB 110.10 MHz 18 nm / 33 km 62.16° 69.73° - 23 ft / 7 m (AMSL)
07 Glidescope IUB 110.10 MHz 10 nm / 19 km 62.16° 69.73° 3.00° 39 ft / 12 m (AMSL)